Time;durP1;ratioP1;P1;durP2;ratioP2;P2;SDS_P1;SDS_P2;PMS_P1;PMS_P2;Temp;Humidity;BMP_temperature;BMP_pressure;BME280_temperature;BME280_humidity;BME280_pressure;Samples;Min_cycle;Max_cycle;Signal;HPM_P1;HPM_P2
2021/01/06 00:01:22;;;;;;;;;;;8.20;99.90;;;;;;5044008;28;20016;-70
2021/01/06 00:03:48;;;;;;;;;;;8.30;99.90;;;;;;5053562;28;20008;-69
2021/01/06 00:06:15;;;;;;;;;;;8.20;99.90;;;;;;5053320;28;20431;-69
2021/01/06 00:08:41;;;;;;;;;;;8.20;99.90;;;;;;5053908;28;20003;-68
2021/01/06 00:11:08;;;;;;;;;;;8.20;99.90;;;;;;5056741;28;20019;-69
2021/01/06 00:13:35;;;;;;;;;;;8.20;99.90;;;;;;5073687;28;20022;-69
2021/01/06 00:16:01;;;;;;;;;;;8.20;99.90;;;;;;5073449;28;20011;-69
2021/01/06 00:18:27;;;;;;;;;;;8.20;99.90;;;;;;5073553;28;20047;-69
2021/01/06 00:20:54;;;;;;;;;;;8.30;99.90;;;;;;5073542;28;20414;-69
2021/01/06 00:23:20;;;;;;;;;;;8.20;99.90;;;;;;5073243;28;19990;-69
2021/01/06 00:25:46;;;;;;;;;;;8.30;99.90;;;;;;5073306;28;20043;-69
2021/01/06 00:28:14;;;;;;;;;;;8.20;99.90;;;;;;5073037;28;19924;-69
2021/01/06 00:30:42;;;;;;;;;;;8.30;99.90;;;;;;5067976;28;19935;-69
2021/01/06 00:33:09;;;;;;;;;;;8.20;99.90;;;;;;5035558;28;20011;-69
2021/01/06 00:35:36;;;;;;;;;;;8.20;99.90;;;;;;5033579;28;20352;-69
2021/01/06 00:38:02;;;;;;;;;;;8.20;99.90;;;;;;5045204;28;20003;-69
2021/01/06 00:40:30;;;;;;;;;;;8.30;99.90;;;;;;5053193;28;20008;-69
2021/01/06 00:42:56;;;;;;;;;;;8.20;99.90;;;;;;5053440;28;20019;-69
2021/01/06 00:45:23;;;;;;;;;;;8.30;99.90;;;;;;5052615;28;19982;-69
2021/01/06 00:47:50;;;;;;;;;;;8.20;99.90;;;;;;5053082;28;20035;-69
2021/01/06 00:50:18;;;;;;;;;;;8.20;99.90;;;;;;5052728;28;20062;-69
2021/01/06 00:52:44;;;;;;;;;;;8.20;99.90;;;;;;5053265;28;20019;-69
2021/01/06 00:55:11;;;;;;;;;;;8.20;99.90;;;;;;5037808;28;20011;-69
2021/01/06 00:57:37;;;;;;;;;;;8.20;99.90;;;;;;5038134;28;20023;-69
2021/01/06 01:00:04;;;;;;;;;;;8.20;99.90;;;;;;5042086;28;19999;-69
2021/01/06 01:02:30;;;;;;;;;;;8.20;99.90;;;;;;5046898;28;20023;-69
2021/01/06 01:04:57;;;;;;;;;;;8.20;99.90;;;;;;5053187;28;20003;-69
2021/01/06 01:07:26;;;;;;;;;;;8.20;99.90;;;;;;5033348;28;20353;-69
2021/01/06 01:09:52;;;;;;;;;;;8.20;99.90;;;;;;5033138;28;19936;-69
2021/01/06 01:12:22;;;;;;;;;;;8.30;99.90;;;;;;5046046;28;20314;-69
2021/01/06 01:14:49;;;;;;;;;;;8.20;99.90;;;;;;5052886;28;19925;-69
2021/01/06 01:17:15;;;;;;;;;;;8.20;99.90;;;;;;5052496;28;20328;-69
2021/01/06 01:19:41;;;;;;;;;;;8.20;99.90;;;;;;5052775;28;20003;-69
2021/01/06 01:22:08;;;;;;;;;;;8.20;99.90;;;;;;5051785;28;20004;-69
2021/01/06 01:24:35;;;;;;;;;;;8.20;99.90;;;;;;5053206;28;20296;-68
2021/01/06 01:27:01;;;;;;;;;;;8.20;99.90;;;;;;5052661;28;20407;-69
2021/01/06 01:29:27;;;;;;;;;;;8.20;99.90;;;;;;5052266;28;20544;-69
2021/01/06 01:31:53;;;;;;;;;;;8.20;99.90;;;;;;5047197;28;19931;-69
2021/01/06 01:34:19;;;;;;;;;;;8.10;99.90;;;;;;5052331;28;20352;-68
2021/01/06 01:36:46;;;;;;;;;;;8.10;99.90;;;;;;5052433;28;19935;-68
2021/01/06 01:39:13;;;;;;;;;;;8.10;99.90;;;;;;5052248;28;19951;-68
2021/01/06 01:41:40;;;;;;;;;;;8.10;99.90;;;;;;5052473;28;20031;-68
2021/01/06 01:44:06;;;;;;;;;;;8.10;99.90;;;;;;5052534;28;20095;-69
2021/01/06 01:46:54;;;;;;;;;;;8.10;99.90;;;;;;5052047;28;20015;-68
2021/01/06 01:49:23;;;;;;;;;;;8.10;99.90;;;;;;5052180;28;20003;-68
2021/01/06 01:51:55;;;;;;;;;;;8.10;99.90;;;;;;5052075;28;20209;-68
2021/01/06 01:54:22;;;;;;;;;;;8.10;99.90;;;;;;5044041;28;20106;-68
2021/01/06 01:56:51;;;;;;;;;;;8.10;99.90;;;;;;5032703;28;20007;-68
2021/01/06 01:59:19;;;;;;;;;;;8.10;99.90;;;;;;5032002;28;20032;-68
2021/01/06 02:01:48;;;;;;;;;;;8.10;99.90;;;;;;5032283;28;20008;-68
2021/01/06 02:04:17;;;;;;;;;;;8.00;99.90;;;;;;5032249;28;19925;-68
2021/01/06 02:06:47;;;;;;;;;;;8.00;99.90;;;;;;5047966;28;20011;-68
2021/01/06 02:09:16;;;;;;;;;;;8.00;99.90;;;;;;5051878;28;20016;-68
2021/01/06 02:11:46;;;;;;;;;;;8.00;99.90;;;;;;5052087;28;19932;-68
2021/01/06 02:14:15;;;;;;;;;;;8.00;99.90;;;;;;5051875;28;20011;-69
2021/01/06 02:16:45;;;;;;;;;;;8.00;99.90;;;;;;5051857;28;19925;-69
2021/01/06 02:19:11;;;;;;;;;;;7.90;99.90;;;;;;5052028;28;20013;-70
2021/01/06 02:21:38;;;;;;;;;;;8.00;99.90;;;;;;5052023;28;20015;-69
2021/01/06 02:24:05;;;;;;;;;;;8.00;99.90;;;;;;5052225;28;19924;-69
2021/01/06 02:26:32;;;;;;;;;;;8.00;99.90;;;;;;5051815;28;20015;-69
2021/01/06 02:28:58;;;;;;;;;;;8.00;99.90;;;;;;5052213;28;20057;-69
2021/01/06 02:31:24;;;;;;;;;;;8.00;99.90;;;;;;5040374;28;19933;-69
2021/01/06 02:33:51;;;;;;;;;;;8.00;99.90;;;;;;5033488;28;19935;-69
2021/01/06 02:36:18;;;;;;;;;;;8.00;99.90;;;;;;5038717;28;20422;-69
2021/01/06 02:38:45;;;;;;;;;;;8.00;99.90;;;;;;5055718;28;20011;-69
2021/01/06 02:41:12;;;;;;;;;;;8.00;99.90;;;;;;5055286;28;20016;-69
2021/01/06 02:43:38;;;;;;;;;;;8.00;99.90;;;;;;5054900;28;20030;-69
2021/01/06 02:46:05;;;;;;;;;;;8.00;99.90;;;;;;5055499;28;20043;-69
2021/01/06 02:48:31;;;;;;;;;;;7.90;99.90;;;;;;5054967;28;19935;-69
2021/01/06 02:51:07;;;;;;;;;;;7.90;99.90;;;;;;5054920;28;20418;-69
2021/01/06 02:53:35;;;;;;;;;;;7.90;99.90;;;;;;5053509;28;20090;-69
2021/01/06 02:56:02;;;;;;;;;;;7.90;99.90;;;;;;5035160;28;20364;-69
2021/01/06 02:58:29;;;;;;;;;;;7.90;99.90;;;;;;5034644;28;20011;-69
2021/01/06 03:00:55;;;;;;;;;;;7.90;99.90;;;;;;5040804;28;19932;-67
2021/01/06 03:03:24;;;;;;;;;;;7.90;99.90;;;;;;5054279;28;19940;-67
2021/01/06 03:05:58;;;;;;;;;;;7.80;99.90;;;;;;5058227;28;20003;-67
2021/01/06 03:08:24;;;;;;;;;;;7.80;99.90;;;;;;5054601;28;19925;-69
2021/01/06 03:10:50;;;;;;;;;;;7.80;99.90;;;;;;5054850;28;19925;-69
2021/01/06 03:13:17;;;;;;;;;;;7.80;99.90;;;;;;5054346;28;20027;-70
2021/01/06 03:15:44;;;;;;;;;;;7.80;99.90;;;;;;5054746;28;20007;-70
2021/01/06 03:18:10;;;;;;;;;;;7.70;99.90;;;;;;5054444;28;20007;-69
2021/01/06 03:20:39;;;;;;;;;;;7.80;99.90;;;;;;5054204;28;19968;-68
2021/01/06 03:23:07;;;;;;;;;;;7.80;99.90;;;;;;5054770;28;20011;-68
2021/01/06 03:25:35;;;;;;;;;;;7.80;99.90;;;;;;5053905;28;20423;-68
2021/01/06 03:28:02;;;;;;;;;;;7.80;99.90;;;;;;5054377;28;19925;-68
2021/01/06 03:30:31;;;;;;;;;;;7.80;99.90;;;;;;5050185;28;19929;-69
2021/01/06 03:33:02;;;;;;;;;;;7.80;99.90;;;;;;5034397;28;20020;-68
2021/01/06 03:35:31;;;;;;;;;;;7.80;99.90;;;;;;5033744;28;20015;-68
2021/01/06 03:38:00;;;;;;;;;;;7.80;99.90;;;;;;5045940;28;20006;-68
2021/01/06 03:40:28;;;;;;;;;;;7.70;99.90;;;;;;5053781;28;19925;-68
2021/01/06 03:42:55;;;;;;;;;;;7.70;99.90;;;;;;5054212;28;20007;-68
2021/01/06 03:45:23;;;;;;;;;;;7.70;99.90;;;;;;5053111;28;20024;-68
2021/01/06 03:47:55;;;;;;;;;;;7.80;99.90;;;;;;5053943;28;19933;-68
2021/01/06 03:50:25;;;;;;;;;;;7.80;99.90;;;;;;5053429;28;19935;-69
2021/01/06 03:53:03;;;;;;;;;;;7.80;99.90;;;;;;5054365;28;19972;-69
2021/01/06 03:55:33;;;;;;;;;;;7.70;99.90;;;;;;5036243;28;19929;-69
2021/01/06 03:58:00;;;;;;;;;;;7.70;99.90;;;;;;5034101;28;20033;-69
2021/01/06 04:00:32;;;;;;;;;;;7.70;99.90;;;;;;5034561;28;19936;-68
2021/01/06 04:03:05;;;;;;;;;;;7.70;99.90;;;;;;5053341;28;20206;-69
2021/01/06 04:05:31;;;;;;;;;;;7.70;99.90;;;;;;5053271;28;19999;-68
2021/01/06 04:08:00;;;;;;;;;;;7.70;99.90;;;;;;5053562;28;20023;-68
2021/01/06 04:10:28;;;;;;;;;;;7.60;99.90;;;;;;5053197;28;19925;-70
2021/01/06 04:12:55;;;;;;;;;;;7.60;99.90;;;;;;5072362;28;20023;-69
2021/01/06 04:15:21;;;;;;;;;;;7.60;99.90;;;;;;5073075;28;20270;-69
2021/01/06 04:17:48;;;;;;;;;;;7.60;99.90;;;;;;5073533;28;20377;-68
2021/01/06 04:20:27;;;;;;;;;;;7.60;99.90;;;;;;5073314;28;20009;-69
2021/01/06 04:22:55;;;;;;;;;;;7.60;99.90;;;;;;5073353;28;20015;-69
2021/01/06 04:25:22;;;;;;;;;;;7.60;99.90;;;;;;5073409;28;19935;-69
2021/01/06 04:27:49;;;;;;;;;;;7.60;99.90;;;;;;5073098;28;20194;-69
2021/01/06 04:30:21;;;;;;;;;;;7.60;99.90;;;;;;5071420;28;19928;-69
2021/01/06 04:32:47;;;;;;;;;;;7.60;99.90;;;;;;5033838;28;19936;-69
2021/01/06 04:35:13;;;;;;;;;;;7.60;99.90;;;;;;5033478;28;20020;-69
2021/01/06 04:37:41;;;;;;;;;;;7.60;99.90;;;;;;5047520;28;20007;-69
2021/01/06 04:40:07;;;;;;;;;;;7.60;99.90;;;;;;5053295;28;20004;-69
2021/01/06 04:42:35;;;;;;;;;;;7.60;99.90;;;;;;5053105;28;20362;-69
2021/01/06 04:45:05;;;;;;;;;;;7.60;99.90;;;;;;5053117;28;20308;-68
2021/01/06 04:47:37;;;;;;;;;;;7.60;99.90;;;;;;5052632;28;19935;-68
2021/01/06 04:50:26;;;;;;;;;;;7.50;99.90;;;;;;5053202;28;19986;-69
2021/01/06 04:52:58;;;;;;;;;;;7.60;99.90;;;;;;5052834;28;20007;-68
2021/01/06 04:55:29;;;;;;;;;;;7.50;99.90;;;;;;5036278;28;20008;-68
2021/01/06 04:58:09;;;;;;;;;;;7.50;99.90;;;;;;5032024;28;20366;-68
2021/01/06 05:00:41;;;;;;;;;;;7.50;99.90;;;;;;5032588;28;20016;-68
2021/01/06 05:03:20;;;;;;;;;;;7.50;99.90;;;;;;5033059;28;19966;-69
2021/01/06 05:06:19;;;;;;;;;;;7.50;99.90;;;;;;5032657;28;20537;-69
2021/01/06 05:08:48;;;;;;;;;;;7.50;99.90;;;;;;4999903;28;20347;-69
2021/01/06 05:11:18;;;;;;;;;;;7.50;99.90;;;;;;5004839;28;20359;-69
2021/01/06 05:13:48;;;;;;;;;;;7.50;99.90;;;;;;5048698;28;20015;-69
2021/01/06 05:16:16;;;;;;;;;;;7.50;99.90;;;;;;5058622;28;20003;-68
2021/01/06 05:18:44;;;;;;;;;;;7.50;99.90;;;;;;5052544;28;20314;-69
2021/01/06 05:21:12;;;;;;;;;;;7.50;99.90;;;;;;5052842;28;19974;-68
2021/01/06 05:23:39;;;;;;;;;;;7.50;99.90;;;;;;5042416;28;20032;-69
2021/01/06 05:26:06;;;;;;;;;;;7.40;99.90;;;;;;5032886;28;20016;-68
2021/01/06 05:28:32;;;;;;;;;;;7.40;99.90;;;;;;5032901;28;20028;-68
2021/01/06 05:30:59;;;;;;;;;;;7.40;99.90;;;;;;5032377;28;20762;-69
2021/01/06 05:33:28;;;;;;;;;;;7.30;99.90;;;;;;5032779;28;20008;-69
2021/01/06 05:35:55;;;;;;;;;;;7.30;99.90;;;;;;5032686;28;20184;-69
2021/01/06 05:38:21;;;;;;;;;;;7.30;99.90;;;;;;5052756;28;20015;-68
2021/01/06 05:40:47;;;;;;;;;;;7.30;99.90;;;;;;5041419;28;20027;-69
2021/01/06 05:43:22;;;;;;;;;;;7.30;99.90;;;;;;5034646;28;20063;-68
2021/01/06 05:45:52;;;;;;;;;;;7.30;99.90;;;;;;5052409;28;20443;-69
2021/01/06 05:48:20;;;;;;;;;;;7.30;99.90;;;;;;5052726;28;19928;-68
2021/01/06 05:50:51;;;;;;;;;;;7.30;99.90;;;;;;5051828;28;19924;-69
2021/01/06 05:53:24;;;;;;;;;;;7.30;99.90;;;;;;5052663;28;20007;-69
2021/01/06 05:55:51;;;;;;;;;;;7.30;99.90;;;;;;5032306;28;20044;-69
2021/01/06 05:58:22;;;;;;;;;;;7.20;99.90;;;;;;5032651;28;20023;-69
2021/01/06 06:00:53;;;;;;;;;;;7.30;99.90;;;;;;5040762;28;20105;-69
2021/01/06 06:03:37;;;;;;;;;;;7.20;99.90;;;;;;5052871;28;20012;-68
2021/01/06 06:06:05;;;;;;;;;;;7.20;99.90;;;;;;5051931;28;20015;-69
2021/01/06 06:08:42;;;;;;;;;;;7.20;99.90;;;;;;5053058;28;20020;-68
2021/01/06 06:11:19;;;;;;;;;;;7.20;99.90;;;;;;5055875;28;20304;-69
2021/01/06 06:13:53;;;;;;;;;;;7.20;99.90;;;;;;5054415;28;19951;-68
2021/01/06 06:16:40;;;;;;;;;;;7.20;99.90;;;;;;5056305;28;20228;-69
2021/01/06 06:19:25;;;;;;;;;;;7.20;99.90;;;;;;5055845;28;19925;-69
2021/01/06 06:21:54;;;;;;;;;;;7.20;99.90;;;;;;5055627;28;20402;-68
2021/01/06 06:24:31;;;;;;;;;;;7.20;99.90;;;;;;5056130;28;19935;-69
2021/01/06 06:27:01;;;;;;;;;;;7.10;99.90;;;;;;5055709;28;20313;-69
2021/01/06 06:29:31;;;;;;;;;;;7.10;99.90;;;;;;5056124;28;20073;-69
2021/01/06 06:31:59;;;;;;;;;;;7.10;99.90;;;;;;5046644;28;20000;-69
2021/01/06 06:34:31;;;;;;;;;;;7.10;99.90;;;;;;5035856;28;19925;-69
2021/01/06 06:37:11;;;;;;;;;;;7.00;99.90;;;;;;5053629;28;19924;-69
2021/01/06 06:39:40;;;;;;;;;;;7.10;99.90;;;;;;5049587;28;20019;-69
2021/01/06 06:42:13;;;;;;;;;;;7.00;99.90;;;;;;5052224;28;20330;-69
2021/01/06 06:44:47;;;;;;;;;;;7.00;99.90;;;;;;5049258;28;20341;-69
2021/01/06 06:47:15;;;;;;;;;;;7.00;99.90;;;;;;5055283;28;20036;-68
2021/01/06 06:49:51;;;;;;;;;;;7.00;99.90;;;;;;5062830;28;20430;-69
2021/01/06 06:52:19;;;;;;;;;;;7.00;99.90;;;;;;5063641;28;20035;-69
2021/01/06 06:54:49;;;;;;;;;;;7.00;99.90;;;;;;5055513;28;20008;-68
2021/01/06 06:57:18;;;;;;;;;;;6.90;99.90;;;;;;5054882;28;20019;-69
2021/01/06 06:59:49;;;;;;;;;;;6.90;99.90;;;;;;5055560;28;19948;-69
2021/01/06 07:02:17;;;;;;;;;;;6.90;99.90;;;;;;5054878;28;19925;-69
2021/01/06 07:04:44;;;;;;;;;;;6.90;99.90;;;;;;5055190;28;19931;-69
2021/01/06 07:07:24;;;;;;;;;;;6.90;99.90;;;;;;5054946;28;20402;-68
2021/01/06 07:09:51;;;;;;;;;;;6.90;99.90;;;;;;5055158;28;20003;-68
2021/01/06 07:12:18;;;;;;;;;;;6.90;99.90;;;;;;5054639;28;20019;-68
2021/01/06 07:14:48;;;;;;;;;;;6.90;99.90;;;;;;5055169;28;20011;-69
2021/01/06 07:17:15;;;;;;;;;;;6.90;99.90;;;;;;5054609;28;19932;-69
2021/01/06 07:19:54;;;;;;;;;;;6.90;99.90;;;;;;5054187;28;20362;-68
2021/01/06 07:22:22;;;;;;;;;;;6.90;99.90;;;;;;5054754;28;21007;-69
2021/01/06 07:24:53;;;;;;;;;;;6.90;99.90;;;;;;5055149;28;20012;-69
2021/01/06 07:27:20;;;;;;;;;;;6.80;99.90;;;;;;5054323;28;20007;-69
2021/01/06 07:29:47;;;;;;;;;;;6.80;99.90;;;;;;5054757;28;20016;-69
2021/01/06 07:32:14;;;;;;;;;;;6.80;99.90;;;;;;5054243;28;19925;-69
2021/01/06 07:34:42;;;;;;;;;;;6.80;99.90;;;;;;5054309;28;19967;-69
2021/01/06 07:37:21;;;;;;;;;;;6.80;99.90;;;;;;5054199;28;19964;-69
2021/01/06 07:39:47;;;;;;;;;;;6.70;99.90;;;;;;5054578;28;20024;-69
2021/01/06 07:42:27;;;;;;;;;;;6.70;99.90;;;;;;5054316;28;19929;-69
2021/01/06 07:45:08;;;;;;;;;;;6.70;99.90;;;;;;5054472;28;20015;-69
2021/01/06 07:47:36;;;;;;;;;;;6.70;99.90;;;;;;5054525;28;20023;-69
2021/01/06 07:50:08;;;;;;;;;;;6.70;99.90;;;;;;5048540;28;20031;-69
2021/01/06 07:52:39;;;;;;;;;;;6.70;99.90;;;;;;5054395;28;19925;-69
2021/01/06 07:55:17;;;;;;;;;;;6.70;99.90;;;;;;5054190;28;20663;-69
2021/01/06 07:57:45;;;;;;;;;;;6.70;99.90;;;;;;5053769;28;19948;-69
2021/01/06 08:00:12;;;;;;;;;;;6.80;99.90;;;;;;5054336;28;19946;-69
2021/01/06 08:02:46;;;;;;;;;;;6.70;99.90;;;;;;5054252;28;20065;-69
2021/01/06 08:05:19;;;;;;;;;;;6.70;99.90;;;;;;5054051;28;19948;-69
2021/01/06 08:07:46;;;;;;;;;;;6.60;99.90;;;;;;5053955;28;20012;-69
2021/01/06 08:10:23;;;;;;;;;;;6.60;99.90;;;;;;5053799;28;20681;-69
2021/01/06 08:12:50;;;;;;;;;;;6.60;99.90;;;;;;5053689;28;20019;-67
2021/01/06 08:15:20;;;;;;;;;;;6.60;99.90;;;;;;5053930;28;19929;-67
2021/01/06 08:17:50;;;;;;;;;;;6.60;99.90;;;;;;5053843;28;19999;-67
2021/01/06 08:20:18;;;;;;;;;;;6.70;99.90;;;;;;5053924;28;20055;-67
2021/01/06 08:22:54;;;;;;;;;;;6.70;99.90;;;;;;5053613;28;19925;-67
2021/01/06 08:25:21;;;;;;;;;;;6.70;99.90;;;;;;5053508;28;20011;-67
2021/01/06 08:27:48;;;;;;;;;;;6.80;99.90;;;;;;5053670;28;19935;-67
2021/01/06 08:30:18;;;;;;;;;;;6.80;99.90;;;;;;5053234;28;19935;-67
2021/01/06 08:32:45;;;;;;;;;;;6.80;99.90;;;;;;5033402;28;19925;-69
2021/01/06 08:35:16;;;;;;;;;;;6.80;99.90;;;;;;5033172;28;19925;-69
2021/01/06 08:37:42;;;;;;;;;;;6.80;99.90;;;;;;5033563;28;19931;-69
2021/01/06 08:40:26;;;;;;;;;;;6.80;99.90;;;;;;5033208;28;19925;-69
2021/01/06 08:42:52;;;;;;;;;;;6.80;99.90;;;;;;5033680;28;20011;-69
2021/01/06 08:45:21;;;;;;;;;;;6.80;99.90;;;;;;5052029;28;20031;-69
2021/01/06 08:47:47;;;;;;;;;;;6.80;99.90;;;;;;5053159;28;20015;-69
2021/01/06 08:50:23;;;;;;;;;;;6.80;99.90;;;;;;5052582;28;20086;-69
2021/01/06 08:52:50;;;;;;;;;;;6.80;99.90;;;;;;5053322;28;19935;-67
2021/01/06 08:55:20;;;;;;;;;;;6.90;99.90;;;;;;5052672;28;19947;-67
2021/01/06 08:57:56;;;;;;;;;;;6.80;99.90;;;;;;5053167;28;20351;-68
2021/01/06 09:00:23;;;;;;;;;;;6.80;99.90;;;;;;5052704;28;19960;-68
2021/01/06 09:02:51;;;;;;;;;;;6.80;99.90;;;;;;5053280;28;19928;-68
2021/01/06 09:05:36;;;;;;;;;;;6.80;99.90;;;;;;5052527;28;20008;-68
2021/01/06 09:08:09;;;;;;;;;;;6.80;99.90;;;;;;5052792;28;20012;-68
2021/01/06 09:10:39;;;;;;;;;;;6.80;99.90;;;;;;5052968;28;20351;-68
2021/01/06 09:13:09;;;;;;;;;;;6.80;99.90;;;;;;5052652;28;20015;-68
2021/01/06 09:15:38;;;;;;;;;;;6.80;99.90;;;;;;5052667;28;20015;-68
2021/01/06 09:18:07;;;;;;;;;;;6.80;99.90;;;;;;5052462;28;20020;-68
2021/01/06 09:20:37;;;;;;;;;;;6.80;99.90;;;;;;5053019;28;20019;-68
2021/01/06 09:23:04;;;;;;;;;;;6.80;99.90;;;;;;5052354;28;19935;-69
2021/01/06 09:25:30;;;;;;;;;;;6.90;99.90;;;;;;5045312;28;20264;-69
2021/01/06 09:27:59;;;;;;;;;;;6.90;99.90;;;;;;5032910;28;20440;-69
2021/01/06 09:30:27;;;;;;;;;;;7.00;99.90;;;;;;5034042;28;20460;-68
2021/01/06 09:32:54;;;;;;;;;;;6.90;99.90;;;;;;5052665;28;19932;-68
2021/01/06 09:35:24;;;;;;;;;;;6.90;99.90;;;;;;5052401;28;19924;-68
2021/01/06 09:37:53;;;;;;;;;;;6.90;99.90;;;;;;5052654;28;20007;-68
2021/01/06 09:40:20;;;;;;;;;;;6.90;99.90;;;;;;5052312;28;20015;-68
2021/01/06 09:42:50;;;;;;;;;;;6.90;99.90;;;;;;5052939;28;19949;-69
2021/01/06 09:45:20;;;;;;;;;;;7.00;99.90;;;;;;5056061;28;20000;-68
2021/01/06 09:47:47;;;;;;;;;;;7.00;99.90;;;;;;5056584;28;19925;-69
2021/01/06 09:50:18;;;;;;;;;;;7.00;99.90;;;;;;5056048;28;20008;-69
2021/01/06 09:52:46;;;;;;;;;;;7.10;99.90;;;;;;5056760;28;19925;-69
2021/01/06 09:55:14;;;;;;;;;;;7.10;99.90;;;;;;5056204;28;19971;-69
2021/01/06 09:57:40;;;;;;;;;;;7.10;99.90;;;;;;5056561;28;20007;-69
2021/01/06 10:00:11;;;;;;;;;;;7.20;99.90;;;;;;5056314;28;19925;-69
2021/01/06 10:02:39;;;;;;;;;;;7.20;99.90;;;;;;5056279;28;20011;-69
2021/01/06 10:05:10;;;;;;;;;;;7.20;99.90;;;;;;5056122;28;20362;-69
2021/01/06 10:07:42;;;;;;;;;;;7.20;99.90;;;;;;5056399;28;20326;-69
2021/01/06 10:10:11;;;;;;;;;;;7.20;99.90;;;;;;5055852;28;20012;-68
2021/01/06 10:12:42;;;;;;;;;;;7.20;99.90;;;;;;5056327;28;19969;-68
2021/01/06 10:15:22;;;;;;;;;;;7.20;99.90;;;;;;5056030;28;20000;-68
2021/01/06 10:18:00;;;;;;;;;;;7.10;99.90;;;;;;5056009;28;19935;-69
2021/01/06 10:20:28;;;;;;;;;;;7.10;99.90;;;;;;5055692;28;19947;-68
2021/01/06 10:22:56;;;;;;;;;;;7.10;99.90;;;;;;5055994;28;20011;-68
2021/01/06 10:25:26;;;;;;;;;;;7.10;99.90;;;;;;5055621;28;19987;-68
2021/01/06 10:27:54;;;;;;;;;;;7.10;99.90;;;;;;5056076;28;19924;-68
2021/01/06 10:30:22;;;;;;;;;;;7.10;99.90;;;;;;5055362;28;19925;-68
2021/01/06 10:32:50;;;;;;;;;;;7.10;99.90;;;;;;5055791;28;20011;-68
2021/01/06 10:35:36;;;;;;;;;;;7.10;99.90;;;;;;5054944;28;20545;-68
2021/01/06 10:38:13;;;;;;;;;;;7.10;99.90;;;;;;5055699;28;19925;-68
2021/01/06 10:40:41;;;;;;;;;;;7.10;99.90;;;;;;5053902;28;21113;-68
2021/01/06 10:43:26;;;;;;;;;;;7.10;99.90;;;;;;5056681;28;20003;-68
2021/01/06 10:45:52;;;;;;;;;;;7.10;99.90;;;;;;5075893;28;20027;-68
2021/01/06 10:48:37;;;;;;;;;;;7.10;99.90;;;;;;5075135;28;20010;-68
2021/01/06 10:51:05;;;;;;;;;;;7.20;99.90;;;;;;5049667;28;20349;-68
2021/01/06 10:53:32;;;;;;;;;;;7.20;99.90;;;;;;5035586;28;20012;-68
2021/01/06 10:56:03;;;;;;;;;;;7.20;99.70;;;;;;5035227;28;19925;-68
2021/01/06 10:58:50;;;;;;;;;;;7.10;99.90;;;;;;5035507;28;19925;-68
2021/01/06 11:01:37;;;;;;;;;;;7.20;99.90;;;;;;5038340;28;19955;-68
2021/01/06 11:04:14;;;;;;;;;;;7.20;99.90;;;;;;5030039;28;20027;-68
2021/01/06 11:06:50;;;;;;;;;;;7.20;99.90;;;;;;5035284;28;20019;-68
2021/01/06 11:09:29;;;;;;;;;;;7.20;99.90;;;;;;5035071;28;20127;-68
2021/01/06 11:12:10;;;;;;;;;;;7.30;99.80;;;;;;5035053;28;19925;-68
2021/01/06 11:14:51;;;;;;;;;;;7.20;99.90;;;;;;5035667;28;20032;-68
2021/01/06 11:17:26;;;;;;;;;;;7.30;99.90;;;;;;5032545;28;20008;-68
2021/01/06 11:19:54;;;;;;;;;;;7.30;99.70;;;;;;5035316;28;20361;-68
2021/01/06 11:22:28;;;;;;;;;;;7.30;99.50;;;;;;5034566;28;19935;-68
2021/01/06 11:24:55;;;;;;;;;;;7.30;99.50;;;;;;5034925;28;20016;-68
2021/01/06 11:27:33;;;;;;;;;;;7.30;99.70;;;;;;5034696;28;20300;-69
2021/01/06 11:30:03;;;;;;;;;;;7.30;99.40;;;;;;5034956;28;20016;-68
2021/01/06 11:32:40;;;;;;;;;;;7.30;99.60;;;;;;5034204;28;19935;-68
2021/01/06 11:35:15;;;;;;;;;;;7.20;99.70;;;;;;5034574;28;20410;-68
2021/01/06 11:37:43;;;;;;;;;;;7.30;99.30;;;;;;5034218;28;19936;-68
2021/01/06 11:40:12;;;;;;;;;;;7.30;99.50;;;;;;5034755;28;20020;-68
2021/01/06 11:42:45;;;;;;;;;;;7.30;99.40;;;;;;5034221;28;23278;-68
2021/01/06 11:45:12;;;;;;;;;;;7.30;99.30;;;;;;5052421;28;20369;-68
2021/01/06 11:47:45;;;;;;;;;;;7.20;99.50;;;;;;5053999;28;19924;-68
2021/01/06 11:50:31;;;;;;;;;;;7.20;99.60;;;;;;5044685;28;20012;-68
2021/01/06 11:53:08;;;;;;;;;;;7.20;99.70;;;;;;5034736;28;20067;-69
2021/01/06 11:55:40;;;;;;;;;;;7.20;99.70;;;;;;5034156;28;20410;-68
2021/01/06 11:58:20;;;;;;;;;;;7.20;99.80;;;;;;5034317;28;20004;-69
2021/01/06 12:00:59;;;;;;;;;;;7.20;99.90;;;;;;5047112;28;20051;-68
2021/01/06 12:03:29;;;;;;;;;;;7.20;99.40;;;;;;5033977;28;20015;-68
2021/01/06 12:06:04;;;;;;;;;;;7.20;99.40;;;;;;5033618;28;19936;-68
2021/01/06 12:08:42;;;;;;;;;;;7.30;99.60;;;;;;5033753;28;20086;-69
2021/01/06 12:11:10;;;;;;;;;;;7.30;99.70;;;;;;5033516;28;20025;-69
2021/01/06 12:13:43;;;;;;;;;;;7.30;99.90;;;;;;5034084;28;20015;-69
2021/01/06 12:16:12;;;;;;;;;;;7.30;99.90;;;;;;5033551;28;19929;-69
2021/01/06 12:18:55;;;;;;;;;;;7.40;99.40;;;;;;5033953;28;20004;-68
2021/01/06 12:21:47;;;;;;;;;;;7.40;98.90;;;;;;5033581;28;20024;-69
2021/01/06 12:24:18;;;;;;;;;;;7.30;98.90;;;;;;5033493;28;20007;-69
2021/01/06 12:26:46;;;;;;;;;;;7.40;99.20;;;;;;5049517;28;20007;-69
2021/01/06 12:29:15;;;;;;;;;;;7.30;99.30;;;;;;5044369;28;19925;-68
2021/01/06 12:31:47;;;;;;;;;;;7.40;99.40;;;;;;5048950;28;19942;-69
2021/01/06 12:34:15;;;;;;;;;;;7.40;99.20;;;;;;5039596;28;20434;-68
2021/01/06 12:36:56;;;;;;;;;;;7.40;99.20;;;;;;5040227;28;19935;-68
2021/01/06 12:39:25;;;;;;;;;;;7.40;98.70;;;;;;5038207;28;19929;-68
2021/01/06 12:42:04;;;;;;;;;;;7.40;98.70;;;;;;5033725;28;20324;-68
2021/01/06 12:44:32;;;;;;;;;;;7.40;98.90;;;;;;5037710;28;19935;-68
2021/01/06 12:46:59;;;;;;;;;;;7.40;99.00;;;;;;5050517;28;20016;-68
2021/01/06 12:49:42;;;;;;;;;;;7.40;98.90;;;;;;5037483;28;19924;-68
2021/01/06 12:52:18;;;;;;;;;;;7.50;99.10;;;;;;5037064;28;19931;-68
2021/01/06 12:54:47;;;;;;;;;;;7.50;99.20;;;;;;5043798;28;20020;-68
2021/01/06 12:57:15;;;;;;;;;;;7.40;99.20;;;;;;5051678;28;19925;-68
2021/01/06 12:59:46;;;;;;;;;;;7.50;98.80;;;;;;5032753;28;19926;-68
2021/01/06 13:02:20;;;;;;;;;;;7.50;98.60;;;;;;5042229;28;19936;-68
2021/01/06 13:04:47;;;;;;;;;;;7.50;98.90;;;;;;5042796;28;20011;-68
2021/01/06 13:07:21;;;;;;;;;;;7.40;98.80;;;;;;5050842;28;19924;-69
2021/01/06 13:09:55;;;;;;;;;;;7.40;99.00;;;;;;5035436;28;19925;-68
2021/01/06 13:12:25;;;;;;;;;;;7.40;98.80;;;;;;5031275;28;20015;-68
2021/01/06 13:14:53;;;;;;;;;;;7.40;99.00;;;;;;5032148;28;20434;-68
2021/01/06 13:17:26;;;;;;;;;;;7.40;98.80;;;;;;5031561;28;19937;-68
2021/01/06 13:20:09;;;;;;;;;;;7.40;98.90;;;;;;5047292;28;19924;-68
2021/01/06 13:22:38;;;;;;;;;;;7.40;98.90;;;;;;5045892;28;20997;-68
2021/01/06 13:25:08;;;;;;;;;;;7.40;98.70;;;;;;5036509;28;20009;-68
2021/01/06 13:27:37;;;;;;;;;;;7.30;98.80;;;;;;5046872;28;20315;-68
2021/01/06 13:30:15;;;;;;;;;;;7.30;98.90;;;;;;5047715;28;20004;-68
2021/01/06 13:32:46;;;;;;;;;;;7.30;99.00;;;;;;5043362;28;20007;-68
2021/01/06 13:35:19;;;;;;;;;;;7.30;99.30;;;;;;5040257;28;19936;-68
2021/01/06 13:37:46;;;;;;;;;;;7.30;99.50;;;;;;5046875;28;20581;-69
2021/01/06 13:40:15;;;;;;;;;;;7.30;99.50;;;;;;5060035;28;19929;-68
2021/01/06 13:42:57;;;;;;;;;;;7.40;99.20;;;;;;5040894;28;20407;-68
2021/01/06 13:45:25;;;;;;;;;;;7.40;99.20;;;;;;5051744;28;20015;-69
2021/01/06 13:47:54;;;;;;;;;;;7.40;99.30;;;;;;5040799;28;20314;-69
2021/01/06 13:50:28;;;;;;;;;;;7.40;98.90;;;;;;5051844;28;20011;-69
2021/01/06 13:52:56;;;;;;;;;;;7.40;98.70;;;;;;5048403;28;20318;-69
2021/01/06 13:55:36;;;;;;;;;;;7.40;98.60;;;;;;5032618;28;19999;-69
2021/01/06 13:58:04;;;;;;;;;;;7.40;98.70;;;;;;5038589;28;21112;-68
2021/01/06 14:00:35;;;;;;;;;;;7.50;98.80;;;;;;5050238;28;20007;-68
2021/01/06 14:03:06;;;;;;;;;;;7.50;98.40;;;;;;5040296;28;20020;-68
2021/01/06 14:05:35;;;;;;;;;;;7.50;98.40;;;;;;5032447;28;20066;-68
2021/01/06 14:08:18;;;;;;;;;;;7.40;98.50;;;;;;5032081;28;19978;-69
2021/01/06 14:10:52;;;;;;;;;;;7.40;98.50;;;;;;5031965;28;20016;-69
2021/01/06 14:13:39;;;;;;;;;;;7.40;98.50;;;;;;5032064;28;19925;-68
2021/01/06 14:16:14;;;;;;;;;;;7.40;98.30;;;;;;5030210;28;20007;-69
2021/01/06 14:18:43;;;;;;;;;;;7.30;98.50;;;;;;5032329;28;20348;-69
2021/01/06 14:21:16;;;;;;;;;;;7.40;98.60;;;;;;5039406;28;20665;-69
2021/01/06 14:23:44;;;;;;;;;;;7.40;98.70;;;;;;5040195;28;19925;-69
2021/01/06 14:26:23;;;;;;;;;;;7.40;98.40;;;;;;5038329;28;19986;-69
2021/01/06 14:28:51;;;;;;;;;;;7.40;98.20;;;;;;5031680;28;20028;-69
2021/01/06 14:31:25;;;;;;;;;;;7.40;98.30;;;;;;5034961;28;20012;-69
2021/01/06 14:33:53;;;;;;;;;;;7.40;98.30;;;;;;5044703;28;20066;-68
2021/01/06 14:36:24;;;;;;;;;;;7.40;98.20;;;;;;5041806;28;20066;-69
2021/01/06 14:38:52;;;;;;;;;;;7.40;98.20;;;;;;5048115;28;20144;-69
2021/01/06 14:41:29;;;;;;;;;;;7.40;98.00;;;;;;5035719;28;20088;-69
2021/01/06 14:43:58;;;;;;;;;;;7.40;97.80;;;;;;5042115;28;20011;-69
2021/01/06 14:46:29;;;;;;;;;;;7.30;98.10;;;;;;5039784;28;19951;-69
2021/01/06 14:49:00;;;;;;;;;;;7.30;98.30;;;;;;5038219;28;20007;-69
2021/01/06 14:51:41;;;;;;;;;;;7.30;98.20;;;;;;5047594;28;20008;-69